sensor_id;sensor_type;location;lat;lon;timestamp;pressure;altitude;pressure_sealevel;temperature;humidity
48089;BME280;33867;50.314;7.802;2022-10-26T00:03:11;100397.25;;;9.86;91.61
48089;BME280;33867;50.314;7.802;2022-10-26T00:06:52;100393.84;;;9.94;91.01
48089;BME280;33867;50.314;7.802;2022-10-26T00:10:11;100379.69;;;9.92;90.85
48089;BME280;33867;50.314;7.802;2022-10-26T00:13:31;100382.25;;;10.03;90.47
48089;BME280;33867;50.314;7.802;2022-10-26T00:16:50;100371.06;;;9.98;90.14
48089;BME280;33867;50.314;7.802;2022-10-26T00:20:09;100371.78;;;10.00;90.12
48089;BME280;33867;50.314;7.802;2022-10-26T00:23:28;100376.75;;;9.95;90.29
48089;BME280;33867;50.314;7.802;2022-10-26T00:26:48;100375.63;;;9.57;94.64
48089;BME280;33867;50.314;7.802;2022-10-26T00:30:08;100383.06;;;9.75;92.99
48089;BME280;33867;50.314;7.802;2022-10-26T00:33:27;100383.38;;;9.91;91.30
48089;BME280;33867;50.314;7.802;2022-10-26T00:36:48;100395.44;;;9.96;90.56
48089;BME280;33867;50.314;7.802;2022-10-26T00:40:07;100393.00;;;9.93;91.05
48089;BME280;33867;50.314;7.802;2022-10-26T00:46:45;100399.69;;;9.99;90.48
48089;BME280;33867;50.314;7.802;2022-10-26T00:50:12;100393.63;;;10.07;90.51
48089;BME280;33867;50.314;7.802;2022-10-26T00:53:34;100398.41;;;10.03;90.67
48089;BME280;33867;50.314;7.802;2022-10-26T00:56:54;100394.16;;;10.10;90.16
48089;BME280;33867;50.314;7.802;2022-10-26T01:00:13;100401.25;;;10.11;89.66
48089;BME280;33867;50.314;7.802;2022-10-26T01:03:33;100402.50;;;10.17;90.50
48089;BME280;33867;50.314;7.802;2022-10-26T01:06:54;100404.94;;;10.10;90.01
48089;BME280;33867;50.314;7.802;2022-10-26T01:10:13;100415.41;;;10.13;89.83
48089;BME280;33867;50.314;7.802;2022-10-26T01:13:34;100399.69;;;9.99;91.61
48089;BME280;33867;50.314;7.802;2022-10-26T01:17:03;100394.59;;;10.15;90.70
48089;BME280;33867;50.314;7.802;2022-10-26T01:27:55;100384.41;;;10.09;91.36
48089;BME280;33867;50.314;7.802;2022-10-26T01:31:19;100377.44;;;10.16;90.88
48089;BME280;33867;50.314;7.802;2022-10-26T01:34:45;100367.88;;;10.23;90.24
48089;BME280;33867;50.314;7.802;2022-10-26T01:38:16;100355.41;;;10.22;89.69
48089;BME280;33867;50.314;7.802;2022-10-26T01:41:47;100353.00;;;10.29;89.86
48089;BME280;33867;50.314;7.802;2022-10-26T01:45:09;100379.47;;;10.24;90.60
48089;BME280;33867;50.314;7.802;2022-10-26T01:48:31;100393.38;;;10.39;89.61
48089;BME280;33867;50.314;7.802;2022-10-26T01:51:51;100388.56;;;10.23;91.53
48089;BME280;33867;50.314;7.802;2022-10-26T01:59:18;100385.91;;;9.83;94.01
48089;BME280;33867;50.314;7.802;2022-10-26T02:02:59;100394.56;;;10.06;92.66
48089;BME280;33867;50.314;7.802;2022-10-26T02:17:58;100362.69;;;9.72;98.58
48089;BME280;33867;50.314;7.802;2022-10-26T02:21:29;100363.84;;;9.99;95.43
48089;BME280;33867;50.314;7.802;2022-10-26T02:25:21;100356.22;;;10.13;93.62
48089;BME280;33867;50.314;7.802;2022-10-26T02:28:46;100359.81;;;10.23;93.11
48089;BME280;33867;50.314;7.802;2022-10-26T02:32:07;100353.84;;;10.30;92.51
48089;BME280;33867;50.314;7.802;2022-10-26T02:35:30;100352.28;;;10.37;92.38
48089;BME280;33867;50.314;7.802;2022-10-26T02:38:52;100354.84;;;10.38;92.88
48089;BME280;33867;50.314;7.802;2022-10-26T02:42:13;100356.25;;;10.33;92.81
48089;BME280;33867;50.314;7.802;2022-10-26T02:45:36;100353.44;;;10.44;92.13
48089;BME280;33867;50.314;7.802;2022-10-26T02:48:57;100360.22;;;10.38;91.58
48089;BME280;33867;50.314;7.802;2022-10-26T02:52:32;100349.44;;;10.48;91.44
48089;BME280;33867;50.314;7.802;2022-10-26T02:55:54;100349.03;;;10.33;92.41
48089;BME280;33867;50.314;7.802;2022-10-26T02:59:15;100346.00;;;10.17;93.18
48089;BME280;33867;50.314;7.802;2022-10-26T03:02:35;100344.66;;;10.42;92.43
48089;BME280;33867;50.314;7.802;2022-10-26T03:05:54;100343.91;;;10.59;91.00
48089;BME280;33867;50.314;7.802;2022-10-26T03:09:14;100338.13;;;10.54;90.72
48089;BME280;33867;50.314;7.802;2022-10-26T03:12:32;100340.81;;;10.54;91.15
48089;BME280;33867;50.314;7.802;2022-10-26T03:15:54;100332.75;;;10.54;91.02
48089;BME280;33867;50.314;7.802;2022-10-26T03:19:14;100343.50;;;10.54;91.93
48089;BME280;33867;50.314;7.802;2022-10-26T03:22:33;100323.66;;;10.55;91.41
48089;BME280;33867;50.314;7.802;2022-10-26T03:25:58;100321.81;;;10.46;93.57
48089;BME280;33867;50.314;7.802;2022-10-26T03:29:17;100318.53;;;10.52;91.95
48089;BME280;33867;50.314;7.802;2022-10-26T03:32:37;100313.06;;;10.44;92.17
48089;BME280;33867;50.314;7.802;2022-10-26T03:35:56;100310.50;;;10.42;93.63
48089;BME280;33867;50.314;7.802;2022-10-26T03:39:15;100319.44;;;10.43;92.35
48089;BME280;33867;50.314;7.802;2022-10-26T03:57:30;100308.38;;;10.36;93.48
48089;BME280;33867;50.314;7.802;2022-10-26T04:01:19;100306.53;;;10.37;93.40
48089;BME280;33867;50.314;7.802;2022-10-26T04:04:39;100306.09;;;10.51;92.72
48089;BME280;33867;50.314;7.802;2022-10-26T04:08:00;100308.91;;;10.49;92.89
48089;BME280;33867;50.314;7.802;2022-10-26T04:11:22;100319.59;;;10.22;96.85
48089;BME280;33867;50.314;7.802;2022-10-26T04:14:41;100318.00;;;10.00;99.33
48089;BME280;33867;50.314;7.802;2022-10-26T04:18:01;100315.72;;;10.15;97.86
48089;BME280;33867;50.314;7.802;2022-10-26T04:21:20;100316.44;;;10.07;99.66
48089;BME280;33867;50.314;7.802;2022-10-26T04:24:39;100322.81;;;10.25;97.34
48089;BME280;33867;50.314;7.802;2022-10-26T04:27:59;100327.91;;;10.38;95.21
48089;BME280;33867;50.314;7.802;2022-10-26T04:31:18;100315.44;;;10.47;94.01
48089;BME280;33867;50.314;7.802;2022-10-26T04:34:38;100317.00;;;10.20;98.04
48089;BME280;33867;50.314;7.802;2022-10-26T04:37:58;100306.09;;;10.12;98.64
48089;BME280;33867;50.314;7.802;2022-10-26T04:41:17;100314.31;;;10.20;98.50
48089;BME280;33867;50.314;7.802;2022-10-26T04:44:36;100296.34;;;10.21;98.04
48089;BME280;33867;50.314;7.802;2022-10-26T04:48:13;100300.28;;;10.46;95.00
48089;BME280;33867;50.314;7.802;2022-10-26T04:55:04;100304.13;;;10.34;97.05
48089;BME280;33867;50.314;7.802;2022-10-26T04:58:24;100298.16;;;10.40;95.96
48089;BME280;33867;50.314;7.802;2022-10-26T05:01:43;100300.88;;;10.11;99.55
48089;BME280;33867;50.314;7.802;2022-10-26T05:05:03;100300.72;;;10.12;99.69
48089;BME280;33867;50.314;7.802;2022-10-26T05:08:22;100296.75;;;10.07;100.00
48089;BME280;33867;50.314;7.802;2022-10-26T05:11:41;100307.78;;;10.13;100.00
48089;BME280;33867;50.314;7.802;2022-10-26T05:15:00;100299.06;;;10.31;98.20
48089;BME280;33867;50.314;7.802;2022-10-26T05:18:21;100298.53;;;10.64;94.93
48089;BME280;33867;50.314;7.802;2022-10-26T05:21:40;100302.69;;;10.59;94.60
48089;BME280;33867;50.314;7.802;2022-10-26T05:24:59;100300.78;;;10.78;94.40
48089;BME280;33867;50.314;7.802;2022-10-26T05:28:18;100306.06;;;10.70;93.25
48089;BME280;33867;50.314;7.802;2022-10-26T05:32:03;100302.06;;;10.74;93.45
48089;BME280;33867;50.314;7.802;2022-10-26T05:35:23;100312.28;;;10.71;92.83
48089;BME280;33867;50.314;7.802;2022-10-26T05:38:43;100308.88;;;10.78;93.28
48089;BME280;33867;50.314;7.802;2022-10-26T05:49:04;100300.69;;;10.51;98.12
48089;BME280;33867;50.314;7.802;2022-10-26T05:57:16;100304.91;;;10.73;93.97
48089;BME280;33867;50.314;7.802;2022-10-26T06:05:40;100294.69;;;10.76;94.64
48089;BME280;33867;50.314;7.802;2022-10-26T06:08:58;100292.97;;;10.75;95.69
48089;BME280;33867;50.314;7.802;2022-10-26T06:12:18;100303.19;;;10.81;93.96
48089;BME280;33867;50.314;7.802;2022-10-26T06:16:00;100312.41;;;10.79;93.88
48089;BME280;33867;50.314;7.802;2022-10-26T06:23:15;100345.03;;;10.66;97.52
48089;BME280;33867;50.314;7.802;2022-10-26T06:27:03;100352.84;;;10.50;98.96
48089;BME280;33867;50.314;7.802;2022-10-26T06:34:33;100336.97;;;10.66;97.27
48089;BME280;33867;50.314;7.802;2022-10-26T06:37:54;100352.53;;;10.82;95.10
48089;BME280;33867;50.314;7.802;2022-10-26T06:41:14;100367.38;;;10.96;93.76
48089;BME280;33867;50.314;7.802;2022-10-26T06:44:37;100362.97;;;10.95;94.68
48089;BME280;33867;50.314;7.802;2022-10-26T06:48:07;100352.75;;;10.98;95.68
48089;BME280;33867;50.314;7.802;2022-10-26T06:51:28;100362.66;;;10.98;97.43
48089;BME280;33867;50.314;7.802;2022-10-26T06:54:50;100375.97;;;11.09;93.82
48089;BME280;33867;50.314;7.802;2022-10-26T06:58:16;100382.19;;;11.19;94.24
48089;BME280;33867;50.314;7.802;2022-10-26T07:01:36;100383.59;;;11.23;94.80
48089;BME280;33867;50.314;7.802;2022-10-26T07:04:55;100380.50;;;11.18;95.74
48089;BME280;33867;50.314;7.802;2022-10-26T07:08:14;100379.53;;;11.00;97.41
48089;BME280;33867;50.314;7.802;2022-10-26T07:15:04;100385.16;;;11.26;94.67
48089;BME280;33867;50.314;7.802;2022-10-26T07:18:23;100382.28;;;11.37;93.10
48089;BME280;33867;50.314;7.802;2022-10-26T07:26:32;100400.84;;;11.67;92.28
48089;BME280;33867;50.314;7.802;2022-10-26T07:29:52;100404.22;;;11.52;93.95
48089;BME280;33867;50.314;7.802;2022-10-26T07:33:12;100404.72;;;11.65;92.80
48089;BME280;33867;50.314;7.802;2022-10-26T07:36:32;100405.22;;;11.78;92.31
48089;BME280;33867;50.314;7.802;2022-10-26T07:39:54;100407.69;;;11.99;92.15
48089;BME280;33867;50.314;7.802;2022-10-26T07:43:13;100420.72;;;12.04;92.45
48089;BME280;33867;50.314;7.802;2022-10-26T07:46:33;100413.94;;;11.99;92.34
48089;BME280;33867;50.314;7.802;2022-10-26T07:49:52;100417.00;;;12.05;92.96
48089;BME280;33867;50.314;7.802;2022-10-26T07:53:11;100425.44;;;12.19;92.97
48089;BME280;33867;50.314;7.802;2022-10-26T07:56:30;100422.53;;;12.48;91.80
48089;BME280;33867;50.314;7.802;2022-10-26T07:59:49;100424.91;;;12.51;91.90
48089;BME280;33867;50.314;7.802;2022-10-26T08:03:31;100432.00;;;12.52;91.17
48089;BME280;33867;50.314;7.802;2022-10-26T08:06:50;100430.94;;;12.45;90.70
48089;BME280;33867;50.314;7.802;2022-10-26T08:10:10;100437.66;;;12.59;90.73
48089;BME280;33867;50.314;7.802;2022-10-26T08:13:29;100435.78;;;12.77;90.64
48089;BME280;33867;50.314;7.802;2022-10-26T08:16:51;100431.38;;;12.76;90.32
48089;BME280;33867;50.314;7.802;2022-10-26T08:23:50;100417.09;;;12.84;90.53
48089;BME280;33867;50.314;7.802;2022-10-26T08:27:09;100419.88;;;12.92;90.19
48089;BME280;33867;50.314;7.802;2022-10-26T08:30:29;100416.63;;;12.88;90.22
48089;BME280;33867;50.314;7.802;2022-10-26T08:33:48;100418.03;;;12.75;91.42
48089;BME280;33867;50.314;7.802;2022-10-26T08:37:07;100436.41;;;12.71;90.77
48089;BME280;33867;50.314;7.802;2022-10-26T08:40:31;100427.78;;;12.32;92.27
48089;BME280;33867;50.314;7.802;2022-10-26T08:43:56;100440.28;;;12.69;91.33
48089;BME280;33867;50.314;7.802;2022-10-26T08:47:21;100438.56;;;12.50;92.29
48089;BME280;33867;50.314;7.802;2022-10-26T08:54:13;100435.25;;;12.74;91.76
48089;BME280;33867;50.314;7.802;2022-10-26T08:57:37;100445.91;;;12.93;91.67
48089;BME280;33867;50.314;7.802;2022-10-26T09:00:57;100444.03;;;13.37;89.61
48089;BME280;33867;50.314;7.802;2022-10-26T09:04:18;100441.44;;;13.54;89.33
48089;BME280;33867;50.314;7.802;2022-10-26T09:07:47;100446.25;;;13.68;88.47
48089;BME280;33867;50.314;7.802;2022-10-26T09:14:55;100455.72;;;13.38;89.34
48089;BME280;33867;50.314;7.802;2022-10-26T09:25:19;100473.56;;;14.25;86.79
48089;BME280;33867;50.314;7.802;2022-10-26T09:28:40;100459.19;;;14.41;86.98
48089;BME280;33867;50.314;7.802;2022-10-26T09:32:00;100463.16;;;14.62;85.99
48089;BME280;33867;50.314;7.802;2022-10-26T09:35:24;100473.19;;;14.78;84.53
48089;BME280;33867;50.314;7.802;2022-10-26T09:38:55;100472.84;;;14.89;84.21
48089;BME280;33867;50.314;7.802;2022-10-26T09:42:21;100476.25;;;15.00;83.70
48089;BME280;33867;50.314;7.802;2022-10-26T09:45:45;100483.00;;;14.87;82.82
48089;BME280;33867;50.314;7.802;2022-10-26T09:49:09;100475.59;;;15.06;82.78
48089;BME280;33867;50.314;7.802;2022-10-26T09:52:30;100472.31;;;15.27;82.41
48089;BME280;33867;50.314;7.802;2022-10-26T09:55:59;100484.84;;;15.60;82.21
48089;BME280;33867;50.314;7.802;2022-10-26T09:59:21;100485.06;;;16.06;85.91
48089;BME280;33867;50.314;7.802;2022-10-26T10:02:43;100477.91;;;16.13;82.86
48089;BME280;33867;50.314;7.802;2022-10-26T10:06:18;100480.53;;;16.29;83.08
48089;BME280;33867;50.314;7.802;2022-10-26T10:09:37;100489.94;;;16.50;82.28
48089;BME280;33867;50.314;7.802;2022-10-26T10:12:57;100494.19;;;17.06;76.44
48089;BME280;33867;50.314;7.802;2022-10-26T10:16:21;100496.53;;;17.09;78.29
48089;BME280;33867;50.314;7.802;2022-10-26T10:19:40;100504.03;;;17.07;79.03
48089;BME280;33867;50.314;7.802;2022-10-26T10:23:01;100499.03;;;17.34;76.33
48089;BME280;33867;50.314;7.802;2022-10-26T10:26:21;100503.84;;;17.69;75.05
48089;BME280;33867;50.314;7.802;2022-10-26T10:33:06;100519.41;;;19.28;71.17
48089;BME280;33867;50.314;7.802;2022-10-26T10:36:28;100507.41;;;20.06;62.65
48089;BME280;33867;50.314;7.802;2022-10-26T10:39:48;100504.56;;;20.62;64.82
48089;BME280;33867;50.314;7.802;2022-10-26T10:54:28;100522.06;;;19.92;68.11
48089;BME280;33867;50.314;7.802;2022-10-26T11:01:31;100518.84;;;20.58;68.03
48089;BME280;33867;50.314;7.802;2022-10-26T11:09:02;100527.66;;;21.27;65.76
48089;BME280;33867;50.314;7.802;2022-10-26T11:12:28;100532.56;;;20.64;63.49
48089;BME280;33867;50.314;7.802;2022-10-26T11:15:51;100526.22;;;20.64;67.34
48089;BME280;33867;50.314;7.802;2022-10-26T11:19:18;100528.84;;;19.47;68.46
48089;BME280;33867;50.314;7.802;2022-10-26T11:22:52;100537.63;;;19.42;71.25
48089;BME280;33867;50.314;7.802;2022-10-26T11:26:35;100540.94;;;19.38;72.07
48089;BME280;33867;50.314;7.802;2022-10-26T11:33:26;100536.13;;;20.71;69.77
48089;BME280;33867;50.314;7.802;2022-10-26T11:36:54;100536.59;;;20.82;65.73
48089;BME280;33867;50.314;7.802;2022-10-26T11:40:39;100535.16;;;20.86;65.21
48089;BME280;33867;50.314;7.802;2022-10-26T11:44:21;100532.44;;;21.19;61.61
48089;BME280;33867;50.314;7.802;2022-10-26T11:47:51;100540.00;;;20.84;65.45
48089;BME280;33867;50.314;7.802;2022-10-26T11:51:32;100538.66;;;20.66;65.72
48089;BME280;33867;50.314;7.802;2022-10-26T11:55:00;100537.06;;;21.05;66.77
48089;BME280;33867;50.314;7.802;2022-10-26T11:58:25;100546.56;;;20.96;65.48
48089;BME280;33867;50.314;7.802;2022-10-26T12:01:46;100544.34;;;20.71;64.82
48089;BME280;33867;50.314;7.802;2022-10-26T12:08:35;100559.03;;;20.57;64.66
48089;BME280;33867;50.314;7.802;2022-10-26T12:12:05;100553.88;;;20.41;65.90
48089;BME280;33867;50.314;7.802;2022-10-26T12:15:42;100560.34;;;20.33;65.67
48089;BME280;33867;50.314;7.802;2022-10-26T12:19:13;100561.38;;;20.26;65.16
48089;BME280;33867;50.314;7.802;2022-10-26T12:22:37;100571.84;;;20.22;65.13
48089;BME280;33867;50.314;7.802;2022-10-26T12:29:46;100562.81;;;20.22;67.77
48089;BME280;33867;50.314;7.802;2022-10-26T12:33:29;100562.03;;;20.34;67.90
48089;BME280;33867;50.314;7.802;2022-10-26T12:43:54;100575.75;;;20.06;67.54
48089;BME280;33867;50.314;7.802;2022-10-26T12:50:48;100585.47;;;20.85;63.08
48089;BME280;33867;50.314;7.802;2022-10-26T12:54:23;100581.00;;;20.77;64.08
48089;BME280;33867;50.314;7.802;2022-10-26T13:01:41;100577.81;;;22.21;59.67
48089;BME280;33867;50.314;7.802;2022-10-26T13:09:19;100582.53;;;23.16;57.17
48089;BME280;33867;50.314;7.802;2022-10-26T13:16:15;100592.66;;;23.22;57.06
48089;BME280;33867;50.314;7.802;2022-10-26T13:19:44;100592.25;;;23.50;54.99
48089;BME280;33867;50.314;7.802;2022-10-26T13:23:24;100608.56;;;23.45;56.08
48089;BME280;33867;50.314;7.802;2022-10-26T13:33:51;100609.13;;;23.60;54.91
48089;BME280;33867;50.314;7.802;2022-10-26T13:37:23;100611.34;;;23.39;56.20
48089;BME280;33867;50.314;7.802;2022-10-26T13:40:45;100608.88;;;23.62;55.50
48089;BME280;33867;50.314;7.802;2022-10-26T13:44:06;100599.56;;;23.63;55.04
48089;BME280;33867;50.314;7.802;2022-10-26T13:47:32;100601.81;;;23.98;54.79
48089;BME280;33867;50.314;7.802;2022-10-26T13:50:58;100599.00;;;23.79;54.62
48089;BME280;33867;50.314;7.802;2022-10-26T13:54:33;100606.78;;;23.57;54.35
48089;BME280;33867;50.314;7.802;2022-10-26T14:01:24;100617.94;;;22.93;53.63
48089;BME280;33867;50.314;7.802;2022-10-26T14:04:45;100614.16;;;22.87;57.62
48089;BME280;33867;50.314;7.802;2022-10-26T14:08:06;100606.63;;;22.63;55.84
48089;BME280;33867;50.314;7.802;2022-10-26T14:19:47;100625.81;;;22.69;55.57
48089;BME280;33867;50.314;7.802;2022-10-26T14:23:27;100630.19;;;22.90;56.53
48089;BME280;33867;50.314;7.802;2022-10-26T14:26:46;100633.25;;;23.14;57.21
48089;BME280;33867;50.314;7.802;2022-10-26T14:30:24;100641.25;;;22.57;55.43
48089;BME280;33867;50.314;7.802;2022-10-26T14:33:43;100636.06;;;22.09;58.07
48089;BME280;33867;50.314;7.802;2022-10-26T14:37:03;100654.84;;;22.06;58.40
48089;BME280;33867;50.314;7.802;2022-10-26T14:40:26;100652.72;;;22.21;59.47
48089;BME280;33867;50.314;7.802;2022-10-26T14:43:45;100648.94;;;22.15;59.25
48089;BME280;33867;50.314;7.802;2022-10-26T14:47:22;100646.16;;;21.89;59.60
48089;BME280;33867;50.314;7.802;2022-10-26T14:50:41;100658.78;;;21.57;60.59
48089;BME280;33867;50.314;7.802;2022-10-26T14:54:01;100664.22;;;21.37;60.41
48089;BME280;33867;50.314;7.802;2022-10-26T14:57:29;100665.00;;;21.24;60.67
48089;BME280;33867;50.314;7.802;2022-10-26T15:01:22;100664.00;;;20.91;62.53
48089;BME280;33867;50.314;7.802;2022-10-26T15:05:00;100670.75;;;20.88;63.96
48089;BME280;33867;50.314;7.802;2022-10-26T15:08:47;100667.66;;;20.63;64.40
48089;BME280;33867;50.314;7.802;2022-10-26T15:12:33;100677.09;;;20.33;65.07
48089;BME280;33867;50.314;7.802;2022-10-26T15:15:55;100674.56;;;20.31;65.71
48089;BME280;33867;50.314;7.802;2022-10-26T15:19:18;100676.22;;;20.26;66.60
48089;BME280;33867;50.314;7.802;2022-10-26T15:22:42;100679.44;;;20.08;64.25
48089;BME280;33867;50.314;7.802;2022-10-26T15:26:09;100687.94;;;20.20;67.10
48089;BME280;33867;50.314;7.802;2022-10-26T15:29:37;100691.75;;;19.97;66.84
48089;BME280;33867;50.314;7.802;2022-10-26T15:33:09;100699.81;;;19.84;68.68
48089;BME280;33867;50.314;7.802;2022-10-26T15:36:35;100703.38;;;19.27;70.22
48089;BME280;33867;50.314;7.802;2022-10-26T15:39:58;100705.81;;;18.86;72.38
48089;BME280;33867;50.314;7.802;2022-10-26T15:43:17;100714.22;;;19.06;72.41
48089;BME280;33867;50.314;7.802;2022-10-26T15:46:36;100731.91;;;18.51;75.06
48089;BME280;33867;50.314;7.802;2022-10-26T15:49:57;100728.13;;;18.52;74.98
48089;BME280;33867;50.314;7.802;2022-10-26T15:53:19;100734.44;;;18.52;75.62
48089;BME280;33867;50.314;7.802;2022-10-26T15:56:39;100726.91;;;18.39;76.25
48089;BME280;33867;50.314;7.802;2022-10-26T16:00:01;100725.66;;;18.27;76.16
48089;BME280;33867;50.314;7.802;2022-10-26T16:03:24;100728.16;;;18.14;76.75
48089;BME280;33867;50.314;7.802;2022-10-26T16:06:43;100734.53;;;18.06;77.04
48089;BME280;33867;50.314;7.802;2022-10-26T16:10:04;100731.81;;;17.83;76.31
48089;BME280;33867;50.314;7.802;2022-10-26T16:13:23;100745.00;;;17.72;78.18
48089;BME280;33867;50.314;7.802;2022-10-26T16:16:44;100749.59;;;17.71;77.77
48089;BME280;33867;50.314;7.802;2022-10-26T16:20:03;100761.13;;;17.03;80.69
48089;BME280;33867;50.314;7.802;2022-10-26T16:23:23;100754.06;;;16.78;82.61
48089;BME280;33867;50.314;7.802;2022-10-26T16:26:42;100757.47;;;16.80;81.71
48089;BME280;33867;50.314;7.802;2022-10-26T16:30:01;100761.19;;;16.87;81.64
48089;BME280;33867;50.314;7.802;2022-10-26T16:33:23;100775.31;;;16.66;82.30
48089;BME280;33867;50.314;7.802;2022-10-26T16:36:42;100788.28;;;16.48;82.53
48089;BME280;33867;50.314;7.802;2022-10-26T16:40:02;100790.78;;;16.57;82.01
48089;BME280;33867;50.314;7.802;2022-10-26T16:43:22;100794.91;;;16.29;82.97
48089;BME280;33867;50.314;7.802;2022-10-26T16:46:41;100789.22;;;15.73;86.76
48089;BME280;33867;50.314;7.802;2022-10-26T16:50:00;100787.88;;;15.86;85.51
48089;BME280;33867;50.314;7.802;2022-10-26T16:53:19;100806.91;;;15.94;84.47
48089;BME280;33867;50.314;7.802;2022-10-26T16:56:38;100809.06;;;15.74;85.91
48089;BME280;33867;50.314;7.802;2022-10-26T16:59:59;100816.84;;;15.61;86.26
48089;BME280;33867;50.314;7.802;2022-10-26T17:03:18;100812.28;;;15.69;84.51
48089;BME280;33867;50.314;7.802;2022-10-26T17:06:37;100828.75;;;15.68;84.41
48089;BME280;33867;50.314;7.802;2022-10-26T17:09:57;100830.84;;;15.48;86.40
48089;BME280;33867;50.314;7.802;2022-10-26T17:13:16;100841.56;;;15.15;88.39
48089;BME280;33867;50.314;7.802;2022-10-26T17:16:35;100848.75;;;14.99;88.99
48089;BME280;33867;50.314;7.802;2022-10-26T17:19:54;100851.41;;;14.90;89.13
48089;BME280;33867;50.314;7.802;2022-10-26T17:23:14;100858.41;;;15.01;87.25
48089;BME280;33867;50.314;7.802;2022-10-26T17:26:33;100857.69;;;14.91;88.42
48089;BME280;33867;50.314;7.802;2022-10-26T17:29:52;100868.31;;;14.84;87.85
48089;BME280;33867;50.314;7.802;2022-10-26T17:33:11;100870.63;;;14.79;89.15
48089;BME280;33867;50.314;7.802;2022-10-26T17:36:30;100885.81;;;14.90;87.25
48089;BME280;33867;50.314;7.802;2022-10-26T17:39:49;100897.47;;;14.82;87.52
48089;BME280;33867;50.314;7.802;2022-10-26T17:43:08;100893.44;;;14.33;91.65
48089;BME280;33867;50.314;7.802;2022-10-26T17:46:28;100901.56;;;14.15;92.00
48089;BME280;33867;50.314;7.802;2022-10-26T17:49:47;100913.06;;;14.17;91.21
48089;BME280;33867;50.314;7.802;2022-10-26T17:53:06;100917.44;;;14.10;91.70
48089;BME280;33867;50.314;7.802;2022-10-26T17:56:28;100912.91;;;14.01;91.52
48089;BME280;33867;50.314;7.802;2022-10-26T17:59:47;100923.44;;;14.04;90.46
48089;BME280;33867;50.314;7.802;2022-10-26T18:03:06;100932.25;;;14.06;89.92
48089;BME280;33867;50.314;7.802;2022-10-26T18:06:26;100926.28;;;14.02;91.57
48089;BME280;33867;50.314;7.802;2022-10-26T18:09:45;100932.03;;;13.99;91.31
48089;BME280;33867;50.314;7.802;2022-10-26T18:13:04;100939.84;;;14.02;91.21
48089;BME280;33867;50.314;7.802;2022-10-26T18:16:25;100942.09;;;13.80;92.58
48089;BME280;33867;50.314;7.802;2022-10-26T18:19:45;100951.03;;;13.90;91.94
48089;BME280;33867;50.314;7.802;2022-10-26T18:23:04;100955.00;;;13.58;94.69
48089;BME280;33867;50.314;7.802;2022-10-26T18:26:25;100962.16;;;13.50;95.72
48089;BME280;33867;50.314;7.802;2022-10-26T18:29:44;100967.09;;;13.27;97.25
48089;BME280;33867;50.314;7.802;2022-10-26T18:33:03;100969.84;;;13.54;94.04
48089;BME280;33867;50.314;7.802;2022-10-26T18:36:23;100973.84;;;13.50;94.24
48089;BME280;33867;50.314;7.802;2022-10-26T18:39:42;100979.53;;;13.47;91.45
48089;BME280;33867;50.314;7.802;2022-10-26T18:43:01;100983.25;;;13.46;91.66
48089;BME280;33867;50.314;7.802;2022-10-26T18:46:25;100986.41;;;13.41;91.02
48089;BME280;33867;50.314;7.802;2022-10-26T18:49:45;100997.78;;;13.35;90.25
48089;BME280;33867;50.314;7.802;2022-10-26T18:53:05;100986.41;;;13.32;91.00
48089;BME280;33867;50.314;7.802;2022-10-26T18:56:30;101004.66;;;13.20;90.25
48089;BME280;33867;50.314;7.802;2022-10-26T18:59:49;100998.66;;;13.07;94.40
48089;BME280;33867;50.314;7.802;2022-10-26T19:03:09;100997.53;;;12.90;94.70
48089;BME280;33867;50.314;7.802;2022-10-26T19:06:36;101008.06;;;12.83;93.54
48089;BME280;33867;50.314;7.802;2022-10-26T19:09:55;101015.75;;;12.88;93.57
48089;BME280;33867;50.314;7.802;2022-10-26T19:13:14;101023.44;;;12.83;93.36
48089;BME280;33867;50.314;7.802;2022-10-26T19:16:35;101016.44;;;12.90;91.39
48089;BME280;33867;50.314;7.802;2022-10-26T19:19:54;101031.41;;;12.94;90.56
48089;BME280;33867;50.314;7.802;2022-10-26T19:23:13;101028.81;;;12.73;93.95
48089;BME280;33867;50.314;7.802;2022-10-26T19:26:33;101030.13;;;12.69;93.06
48089;BME280;33867;50.314;7.802;2022-10-26T19:29:52;101038.91;;;12.62;93.10
48089;BME280;33867;50.314;7.802;2022-10-26T19:33:11;101041.03;;;12.58;92.67
48089;BME280;33867;50.314;7.802;2022-10-26T19:36:31;101040.75;;;12.51;92.13
48089;BME280;33867;50.314;7.802;2022-10-26T19:39:51;101050.00;;;12.58;92.65
48089;BME280;33867;50.314;7.802;2022-10-26T19:43:09;101049.28;;;12.47;91.24
48089;BME280;33867;50.314;7.802;2022-10-26T19:46:30;101060.63;;;12.50;92.29
48089;BME280;33867;50.314;7.802;2022-10-26T19:49:50;101058.06;;;12.39;91.52
48089;BME280;33867;50.314;7.802;2022-10-26T19:53:09;101065.44;;;12.37;91.03
48089;BME280;33867;50.314;7.802;2022-10-26T19:56:28;101066.25;;;12.28;91.16
48089;BME280;33867;50.314;7.802;2022-10-26T19:59:47;101072.50;;;12.28;91.67
48089;BME280;33867;50.314;7.802;2022-10-26T20:03:09;101077.63;;;12.22;92.21
48089;BME280;33867;50.314;7.802;2022-10-26T20:06:28;101072.22;;;12.22;91.90
48089;BME280;33867;50.314;7.802;2022-10-26T20:09:48;101080.16;;;12.14;91.67
48089;BME280;33867;50.314;7.802;2022-10-26T20:13:08;101078.44;;;12.13;92.57
48089;BME280;33867;50.314;7.802;2022-10-26T20:16:28;101083.84;;;12.13;93.12
48089;BME280;33867;50.314;7.802;2022-10-26T20:19:47;101083.81;;;11.82;97.13
48089;BME280;33867;50.314;7.802;2022-10-26T20:23:08;101082.03;;;11.92;94.65
48089;BME280;33867;50.314;7.802;2022-10-26T20:26:27;101080.78;;;11.96;93.53
48089;BME280;33867;50.314;7.802;2022-10-26T20:29:46;101089.56;;;11.89;93.53
48089;BME280;33867;50.314;7.802;2022-10-26T20:33:05;101091.06;;;11.82;93.88